createdAt,value
2023-03-18T00:00:21.275Z,6.63
2023-03-18T00:02:49.581Z,4.35
2023-03-18T00:05:17.388Z,6.65
2023-03-18T00:07:45.558Z,8.32
2023-03-18T00:10:13.058Z,8.25
2023-03-18T00:12:41.482Z,8.00
2023-03-18T00:15:11.142Z,5.65
2023-03-18T00:17:40.570Z,8.07
2023-03-18T00:20:09.688Z,5.10
2023-03-18T00:22:42.625Z,6.70
2023-03-18T00:25:12.070Z,9.32
2023-03-18T00:27:40.133Z,7.93
2023-03-18T00:30:08.560Z,8.15
2023-03-18T00:32:35.919Z,7.38
2023-03-18T00:35:08.044Z,4.93
2023-03-18T00:37:36.921Z,5.60
2023-03-18T00:40:10.412Z,10.07
2023-03-18T00:42:40.336Z,7.85
2023-03-18T00:45:11.298Z,7.25
2023-03-18T00:47:38.744Z,7.15
2023-03-18T00:50:08.606Z,5.75
2023-03-18T00:52:36.831Z,8.60
2023-03-18T00:55:07.860Z,9.15
2023-03-18T00:57:35.593Z,5.95
2023-03-18T01:00:03.455Z,9.45
2023-03-18T01:02:31.073Z,7.57
2023-03-18T01:04:58.337Z,8.65
2023-03-18T01:07:25.858Z,7.40
2023-03-18T01:09:53.027Z,10.88
2023-03-18T01:12:23.467Z,9.68
2023-03-18T01:14:53.788Z,8.75
2023-03-18T01:17:21.152Z,9.95
2023-03-18T01:19:49.017Z,19.38
2023-03-18T01:22:16.511Z,7.80
2023-03-18T01:24:45.063Z,11.23
2023-03-18T01:27:12.781Z,5.05
2023-03-18T01:29:41.032Z,10.15
2023-03-18T01:32:09.161Z,10.75
2023-03-18T01:34:36.283Z,9.05
2023-03-18T01:37:04.056Z,9.77
2023-03-18T01:39:31.362Z,8.68
2023-03-18T01:42:06.012Z,9.27
2023-03-18T01:44:33.927Z,7.28
2023-03-18T01:47:05.147Z,8.00
2023-03-18T01:49:36.766Z,9.05
2023-03-18T01:52:13.124Z,8.15
2023-03-18T01:54:51.750Z,8.07
2023-03-18T01:57:20.666Z,7.65
2023-03-18T01:59:50.912Z,12.90
2023-03-18T02:02:20.041Z,6.45
2023-03-18T02:04:54.046Z,10.25
2023-03-18T02:07:28.163Z,14.30
2023-03-18T02:09:57.792Z,5.18
2023-03-18T02:12:38.901Z,6.68
2023-03-18T02:15:16.773Z,8.23
2023-03-18T02:17:48.869Z,7.85
2023-03-18T02:20:41.112Z,10.15
2023-03-18T02:23:55.268Z,10.10
2023-03-18T02:26:25.454Z,10.68
2023-03-18T02:28:57.549Z,10.35
2023-03-18T02:31:25.368Z,7.93
2023-03-18T02:33:52.766Z,11.50
2023-03-18T02:36:24.268Z,7.63
2023-03-18T02:38:51.547Z,10.23
2023-03-18T02:41:22.753Z,8.70
2023-03-18T02:43:51.206Z,6.55
2023-03-18T02:46:32.127Z,7.93
2023-03-18T02:49:01.743Z,6.47
2023-03-18T02:51:29.676Z,5.55
2023-03-18T02:54:02.112Z,8.50
2023-03-18T02:56:29.813Z,9.35
2023-03-18T02:58:58.258Z,7.07
2023-03-18T03:01:25.936Z,7.97
2023-03-18T03:03:54.408Z,8.38
2023-03-18T03:06:21.794Z,9.13
2023-03-18T03:08:49.555Z,6.53
2023-03-18T03:11:17.405Z,7.55
2023-03-18T03:13:47.802Z,11.13
2023-03-18T03:16:17.220Z,9.88
2023-03-18T03:18:44.999Z,8.68
2023-03-18T03:21:13.600Z,11.35
2023-03-18T03:23:41.833Z,9.70
2023-03-18T03:26:09.310Z,7.68
2023-03-18T03:28:36.606Z,9.20
2023-03-18T03:31:04.086Z,8.68
2023-03-18T03:33:31.714Z,8.60
2023-03-18T03:35:59.047Z,9.45
2023-03-18T03:38:27.135Z,9.00
2023-03-18T03:40:54.520Z,11.23
2023-03-18T03:43:21.965Z,9.02
2023-03-18T03:45:49.206Z,8.55
2023-03-18T03:48:16.802Z,6.43
2023-03-18T03:50:44.084Z,13.63
2023-03-18T03:53:11.866Z,14.35
2023-03-18T03:55:39.502Z,9.13
2023-03-18T03:58:06.698Z,10.57
2023-03-18T04:00:34.137Z,11.68
2023-03-18T04:03:01.774Z,9.02
2023-03-18T04:05:30.003Z,10.77
2023-03-18T04:08:00.386Z,9.18
2023-03-18T04:10:28.458Z,16.77
2023-03-18T04:12:56.495Z,7.57
2023-03-18T04:15:23.943Z,11.80
2023-03-18T04:17:51.609Z,10.93
2023-03-18T04:20:19.640Z,9.10
2023-03-18T04:22:47.338Z,7.18
2023-03-18T04:25:17.384Z,11.52
2023-03-18T04:27:44.869Z,11.35
2023-03-18T04:30:13.799Z,11.93
2023-03-18T04:32:41.198Z,12.30
2023-03-18T04:35:09.781Z,14.20
2023-03-18T04:37:37.721Z,9.93
2023-03-18T04:40:06.694Z,8.45
2023-03-18T04:42:34.213Z,10.15
2023-03-18T04:45:02.294Z,6.72
2023-03-18T04:47:29.562Z,5.93
2023-03-18T04:49:56.772Z,10.55
2023-03-18T04:52:25.192Z,8.40
2023-03-18T04:54:52.931Z,8.02
2023-03-18T04:57:20.268Z,8.65
2023-03-18T04:59:50.085Z,7.28
2023-03-18T05:02:17.863Z,7.53
2023-03-18T05:04:45.770Z,7.57
2023-03-18T05:07:17.397Z,9.40
2023-03-18T05:09:44.922Z,13.48
2023-03-18T05:12:15.504Z,9.90
2023-03-18T05:14:44.015Z,13.30
2023-03-18T05:17:16.123Z,8.80
2023-03-18T05:19:48.972Z,11.02
2023-03-18T05:22:19.395Z,10.93
2023-03-18T05:24:47.275Z,9.48
2023-03-18T05:27:17.711Z,5.85
2023-03-18T05:29:45.291Z,10.07
2023-03-18T05:32:14.961Z,8.10
2023-03-18T05:34:43.239Z,13.38
2023-03-18T05:37:13.258Z,7.80
2023-03-18T05:39:40.622Z,11.50
2023-03-18T05:42:09.675Z,9.70
2023-03-18T05:44:39.191Z,7.57
2023-03-18T05:47:07.034Z,14.38
2023-03-18T05:49:34.723Z,9.05
2023-03-18T05:52:03.017Z,12.05
2023-03-18T05:54:30.318Z,10.63
2023-03-18T05:56:58.476Z,8.55
2023-03-18T05:59:25.875Z,5.75
2023-03-18T06:01:54.239Z,7.03
2023-03-18T06:04:21.698Z,10.82
2023-03-18T06:06:50.624Z,8.18
2023-03-18T06:09:17.895Z,8.20
2023-03-18T06:11:45.746Z,7.95
2023-03-18T06:14:13.717Z,10.02
2023-03-18T06:16:42.317Z,9.85
2023-03-18T06:19:12.195Z,9.82
2023-03-18T06:21:42.624Z,9.45
2023-03-18T06:24:10.086Z,6.47
2023-03-18T06:26:37.518Z,8.23
2023-03-18T06:29:05.488Z,10.80
2023-03-18T06:31:33.002Z,6.43
2023-03-18T06:34:01.468Z,12.38
2023-03-18T06:36:29.220Z,9.00
2023-03-18T06:38:56.733Z,8.70
2023-03-18T06:41:24.336Z,7.28
2023-03-18T06:43:52.418Z,11.55
2023-03-18T06:46:20.271Z,15.63
2023-03-18T06:48:49.098Z,9.23
2023-03-18T06:51:16.250Z,9.05
2023-03-18T06:53:43.794Z,9.70
2023-03-18T06:56:13.641Z,9.55
2023-03-18T06:58:41.289Z,17.52
2023-03-18T07:01:08.992Z,10.85
2023-03-18T07:03:36.301Z,13.15
2023-03-18T07:06:04.741Z,14.05
2023-03-18T07:08:32.594Z,9.68
2023-03-18T07:11:01.183Z,13.88
2023-03-18T07:13:29.107Z,13.20
2023-03-18T07:16:00.811Z,10.05
2023-03-18T07:18:28.672Z,16.08
2023-03-18T07:20:55.989Z,16.52
2023-03-18T07:23:23.414Z,13.07
2023-03-18T07:25:50.757Z,19.30
2023-03-18T07:28:18.356Z,18.25
2023-03-18T07:30:45.925Z,11.23
2023-03-18T07:33:13.652Z,19.92
2023-03-18T07:35:42.188Z,19.15
2023-03-18T07:38:10.318Z,19.25
2023-03-18T07:40:38.285Z,17.60
2023-03-18T07:43:06.803Z,16.75
2023-03-18T07:45:35.254Z,14.38
2023-03-18T07:48:02.375Z,20.45
2023-03-18T07:50:29.676Z,13.48
2023-03-18T07:52:57.353Z,16.73
2023-03-18T07:55:24.619Z,15.63
2023-03-18T07:57:51.948Z,21.45
2023-03-18T08:00:19.931Z,16.90
2023-03-18T08:02:47.319Z,18.17
2023-03-18T08:05:15.079Z,21.20
2023-03-18T08:07:42.983Z,16.80
2023-03-18T08:10:11.749Z,17.50
2023-03-18T08:12:52.257Z,18.48
2023-03-18T08:15:22.558Z,14.88
2023-03-18T08:17:50.921Z,22.27
2023-03-18T08:20:18.447Z,20.25
2023-03-18T08:22:46.180Z,15.98
2023-03-18T08:25:13.911Z,18.33
2023-03-18T08:27:41.293Z,16.60
2023-03-18T08:30:09.785Z,15.40
2023-03-18T08:32:37.794Z,14.15
2023-03-18T08:35:05.596Z,14.20
2023-03-18T08:37:32.934Z,16.13
2023-03-18T08:40:00.739Z,15.10
2023-03-18T08:42:28.200Z,31.83
2023-03-18T08:44:55.818Z,13.27
2023-03-18T08:47:25.435Z,13.77
2023-03-18T08:49:52.550Z,15.38
2023-03-18T08:52:20.262Z,29.10
2023-03-18T08:54:48.104Z,17.40
2023-03-18T08:57:16.346Z,16.77
2023-03-18T08:59:43.793Z,15.20
2023-03-18T09:02:17.441Z,20.90
2023-03-18T09:04:45.617Z,19.52
2023-03-18T09:07:13.813Z,14.43
2023-03-18T09:09:44.107Z,21.90
2023-03-18T09:12:12.899Z,14.52
2023-03-18T09:14:41.172Z,19.13
2023-03-18T09:17:09.193Z,12.60
2023-03-18T09:19:37.687Z,16.38
2023-03-18T09:22:05.446Z,15.70
2023-03-18T09:24:33.086Z,14.48
2023-03-18T09:27:00.363Z,18.13
2023-03-18T09:29:27.900Z,20.42
2023-03-18T09:31:55.829Z,21.38
2023-03-18T09:34:23.655Z,21.33
2023-03-18T09:36:53.945Z,17.45
2023-03-18T09:39:22.316Z,14.82
2023-03-18T09:42:21.750Z,15.75
2023-03-18T09:45:01.149Z,15.35
2023-03-18T09:47:54.156Z,19.20
2023-03-18T09:50:50.481Z,15.90
2023-03-18T09:53:27.947Z,15.73
2023-03-18T09:55:57.977Z,14.43
2023-03-18T09:58:28.344Z,11.05
2023-03-18T10:01:02.244Z,17.17
2023-03-18T10:03:48.689Z,15.07
2023-03-18T10:06:24.317Z,12.32
2023-03-18T10:09:10.587Z,9.20
2023-03-18T10:11:50.387Z,9.05
2023-03-18T10:15:00.890Z,11.93
2023-03-18T10:17:44.353Z,9.48
2023-03-18T10:20:27.684Z,11.70
2023-03-18T10:23:11.307Z,13.32
2023-03-18T10:25:49.014Z,10.90
2023-03-18T10:28:44.463Z,11.18
2023-03-18T10:31:22.664Z,15.05
2023-03-18T10:34:04.150Z,13.50
2023-03-18T10:37:34.660Z,11.10
2023-03-18T10:40:02.795Z,15.95
2023-03-18T10:42:33.454Z,14.35
2023-03-18T10:45:23.793Z,12.57
2023-03-18T10:48:11.961Z,10.68
2023-03-18T10:51:20.986Z,8.40
2023-03-18T10:54:33.044Z,14.65
2023-03-18T10:57:00.706Z,9.10
2023-03-18T10:59:30.507Z,7.90
2023-03-18T11:02:13.346Z,8.63
2023-03-18T11:05:05.009Z,14.90
2023-03-18T11:07:33.689Z,16.65
2023-03-18T11:10:26.303Z,12.75
2023-03-18T11:13:00.396Z,12.75
2023-03-18T11:15:27.685Z,10.13
2023-03-18T11:18:00.569Z,13.10
2023-03-18T11:20:44.268Z,10.18
2023-03-18T11:23:56.734Z,8.05
2023-03-18T11:26:29.537Z,16.30
2023-03-18T11:29:10.702Z,13.23
2023-03-18T11:31:58.550Z,9.93
2023-03-18T11:34:28.367Z,9.43
2023-03-18T11:37:05.229Z,9.27
2023-03-18T11:39:37.801Z,9.73
2023-03-18T11:42:22.229Z,9.80
2023-03-18T11:44:55.582Z,11.68
2023-03-18T11:47:28.325Z,11.38
2023-03-18T11:49:56.314Z,10.13
2023-03-18T11:52:47.112Z,11.30
2023-03-18T11:55:19.166Z,8.32
2023-03-18T11:58:09.325Z,12.00
2023-03-18T12:01:08.949Z,10.02
2023-03-18T12:03:52.955Z,11.82
2023-03-18T12:06:39.333Z,10.88
2023-03-18T12:09:25.362Z,11.52
2023-03-18T12:12:09.183Z,11.43
2023-03-18T12:15:08.472Z,13.65
2023-03-18T12:17:59.843Z,10.20
2023-03-18T12:20:57.450Z,12.30
2023-03-18T12:23:40.482Z,10.75
2023-03-18T12:26:28.743Z,9.82
2023-03-18T12:29:12.961Z,8.98
2023-03-18T12:31:49.202Z,13.05
2023-03-18T12:34:25.989Z,11.20
2023-03-18T12:37:16.692Z,13.80
2023-03-18T12:39:59.470Z,15.30
2023-03-18T12:42:29.819Z,11.52
2023-03-18T12:45:11.997Z,8.88
2023-03-18T12:48:15.180Z,9.13
2023-03-18T12:50:52.068Z,12.38
2023-03-18T12:53:31.292Z,8.65
2023-03-18T12:56:03.652Z,17.77
2023-03-18T12:58:48.996Z,7.38
2023-03-18T13:01:32.664Z,8.55
2023-03-18T13:04:06.193Z,7.25
2023-03-18T13:06:44.130Z,10.60
2023-03-18T13:09:40.943Z,5.10
2023-03-18T13:12:13.818Z,7.43
2023-03-18T13:14:59.784Z,9.25
2023-03-18T13:17:36.447Z,8.38
2023-03-18T13:20:24.138Z,5.10
2023-03-18T13:23:26.175Z,6.93
2023-03-18T13:26:04.828Z,6.00
2023-03-18T13:29:08.854Z,5.38
2023-03-18T13:32:19.626Z,10.38
2023-03-18T13:34:53.059Z,5.45
2023-03-18T13:37:59.398Z,6.50
2023-03-18T13:40:42.988Z,3.53
2023-03-18T13:43:16.562Z,3.42
2023-03-18T13:45:48.542Z,3.58
2023-03-18T13:48:18.837Z,4.78
2023-03-18T13:50:49.078Z,5.78
2023-03-18T13:53:42.323Z,4.93
2023-03-18T13:56:28.861Z,5.90
2023-03-18T13:58:56.477Z,5.18
2023-03-18T14:01:50.994Z,4.60
2023-03-18T14:04:50.372Z,3.45
2023-03-18T14:07:24.070Z,2.95
2023-03-18T14:10:15.359Z,4.68
2023-03-18T14:12:48.161Z,2.63
2023-03-18T14:15:16.035Z,3.40
2023-03-18T14:17:49.848Z,4.38
2023-03-18T14:20:20.077Z,4.55
2023-03-18T14:23:09.051Z,3.67
2023-03-18T14:26:02.312Z,8.43
2023-03-18T14:28:35.766Z,3.28
2023-03-18T14:31:26.027Z,7.95
2023-03-18T14:33:58.762Z,3.17
2023-03-18T14:36:55.837Z,6.15
2023-03-18T14:39:48.368Z,6.13
2023-03-18T14:42:42.213Z,7.93
2023-03-18T14:45:32.103Z,4.57
2023-03-18T14:48:05.697Z,3.13
2023-03-18T14:50:47.404Z,1.73
2023-03-18T14:53:23.433Z,5.25
2023-03-18T14:55:56.902Z,7.18
2023-03-18T14:58:25.162Z,7.78
2023-03-18T15:00:56.860Z,5.25
2023-03-18T15:03:28.064Z,3.95
2023-03-18T15:06:04.077Z,4.03
2023-03-18T15:08:47.767Z,4.40
2023-03-18T15:11:17.734Z,1.67
2023-03-18T15:13:45.713Z,1.98
2023-03-18T15:16:17.552Z,6.82
2023-03-18T15:18:47.320Z,3.65
2023-03-18T15:21:23.166Z,2.85
2023-03-18T15:23:57.708Z,3.70
2023-03-18T15:26:27.552Z,5.93
2023-03-18T15:29:00.457Z,5.25
2023-03-18T15:31:38.874Z,7.57
2023-03-18T15:34:30.001Z,3.83
2023-03-18T15:37:02.406Z,6.40
2023-03-18T15:39:36.243Z,86.22
2023-03-18T15:42:13.962Z,134.25
2023-03-18T15:44:42.961Z,302.27
2023-03-18T15:47:30.931Z,585.42
2023-03-18T15:50:15.290Z,279.80
2023-03-18T15:52:43.422Z,351.90
2023-03-18T15:55:31.442Z,411.75
2023-03-18T15:57:59.191Z,246.07
2023-03-18T16:00:27.112Z,119.65
2023-03-18T16:02:54.450Z,57.50
2023-03-18T16:05:28.222Z,50.85
2023-03-18T16:07:56.007Z,79.15
2023-03-18T16:10:26.553Z,33.13
2023-03-18T16:12:58.372Z,29.63
2023-03-18T16:15:26.804Z,55.72
2023-03-18T16:17:56.236Z,50.17
2023-03-18T16:20:29.518Z,38.28
2023-03-18T16:23:00.205Z,19.38
2023-03-18T16:25:28.228Z,18.27
2023-03-18T16:27:57.657Z,22.77
2023-03-18T16:30:30.363Z,11.18
2023-03-18T16:32:58.961Z,14.55
2023-03-18T16:35:34.784Z,8.48
2023-03-18T16:38:02.413Z,8.98
2023-03-18T16:40:31.943Z,6.05
2023-03-18T16:42:59.335Z,8.43
2023-03-18T16:45:33.356Z,9.40
2023-03-18T16:48:05.036Z,9.55
2023-03-18T16:50:37.855Z,3.72
2023-03-18T16:53:18.754Z,5.35
2023-03-18T16:59:01.667Z,8.07
2023-03-18T17:01:31.300Z,5.20
2023-03-18T17:03:58.640Z,9.25
2023-03-18T17:06:26.484Z,1.67
2023-03-18T17:08:56.918Z,6.43
2023-03-18T17:11:24.300Z,3.60
2023-03-18T17:13:52.231Z,5.20
2023-03-18T17:16:22.881Z,6.57
2023-03-18T17:18:50.022Z,9.30
2023-03-18T17:21:17.418Z,11.80
2023-03-18T17:23:46.000Z,16.83
2023-03-18T17:26:15.853Z,10.10
2023-03-18T17:28:46.020Z,11.27
2023-03-18T17:31:13.937Z,13.23
2023-03-18T17:33:41.397Z,14.90
2023-03-18T17:36:09.436Z,18.17
2023-03-18T17:38:36.974Z,20.73
2023-03-18T17:41:08.367Z,17.00
2023-03-18T17:43:37.029Z,15.63
2023-03-18T17:46:05.513Z,13.25
2023-03-18T17:48:35.291Z,9.18
2023-03-18T17:51:06.602Z,4.60
2023-03-18T17:53:43.209Z,5.65
2023-03-18T17:56:16.158Z,7.85
2023-03-18T17:58:45.971Z,7.95
2023-03-18T18:01:19.782Z,8.13
2023-03-18T18:03:48.141Z,8.55
2023-03-18T18:06:21.746Z,5.93
2023-03-18T18:08:50.051Z,4.95
2023-03-18T18:11:24.174Z,5.15
2023-03-18T18:13:54.107Z,10.80
2023-03-18T18:16:23.276Z,2.70
2023-03-18T18:18:51.234Z,7.80
2023-03-18T18:21:21.974Z,4.82
2023-03-18T18:23:49.538Z,4.05
2023-03-18T18:26:20.323Z,3.60
2023-03-18T18:28:50.621Z,5.90
2023-03-18T18:31:19.909Z,9.00
2023-03-18T18:33:50.414Z,7.18
2023-03-18T18:36:18.360Z,7.35
2023-03-18T18:38:46.004Z,4.57
2023-03-18T18:41:13.194Z,8.93
2023-03-18T18:43:40.291Z,8.57
2023-03-18T18:46:15.116Z,10.00
2023-03-18T18:48:47.493Z,8.43
2023-03-18T18:51:20.399Z,14.60
2023-03-18T18:53:48.299Z,14.45
2023-03-18T18:56:37.169Z,16.60
2023-03-18T18:59:27.092Z,20.25
2023-03-18T19:01:56.583Z,24.67
2023-03-18T19:04:24.417Z,22.50
2023-03-18T19:06:52.869Z,22.98
2023-03-18T19:09:26.135Z,18.27
2023-03-18T19:11:55.611Z,13.88
2023-03-18T19:14:25.584Z,15.20
2023-03-18T19:16:54.411Z,17.40
2023-03-18T19:19:25.696Z,17.33
2023-03-18T19:21:52.996Z,17.95
2023-03-18T19:24:32.502Z,17.58
2023-03-18T19:27:06.254Z,22.88
2023-03-18T19:29:33.545Z,23.58
2023-03-18T19:32:01.948Z,36.10
2023-03-18T19:34:32.515Z,33.05
2023-03-18T19:37:02.895Z,37.20
2023-03-18T19:39:30.255Z,44.10
2023-03-18T19:41:58.074Z,40.13
2023-03-18T19:44:27.437Z,49.08
2023-03-18T19:46:56.744Z,51.40
2023-03-18T19:49:26.609Z,77.80
2023-03-18T19:51:55.089Z,104.07
2023-03-18T19:54:33.914Z,105.68
2023-03-18T19:57:22.779Z,105.40
2023-03-18T19:59:51.566Z,110.30
2023-03-18T20:02:34.138Z,72.18
2023-03-18T20:05:17.126Z,60.10
2023-03-18T20:07:44.660Z,50.83
2023-03-18T20:10:14.218Z,47.92
2023-03-18T20:12:47.393Z,67.32
2023-03-18T20:15:22.792Z,93.20
2023-03-18T20:17:51.625Z,100.13
2023-03-18T20:20:27.341Z,97.93
2023-03-18T20:23:01.965Z,91.13
2023-03-18T20:25:36.010Z,78.65
2023-03-18T20:28:05.189Z,62.42
2023-03-18T20:30:39.259Z,61.35
2023-03-18T20:33:06.972Z,61.65
2023-03-18T20:35:40.661Z,51.20
2023-03-18T20:38:17.349Z,37.97
2023-03-18T20:40:47.882Z,33.88
2023-03-18T20:43:19.892Z,34.58
2023-03-18T20:45:47.135Z,37.50
2023-03-18T20:48:14.558Z,29.30
2023-03-18T20:50:42.113Z,18.30
2023-03-18T20:53:36.283Z,16.42
2023-03-18T20:56:05.164Z,16.33
2023-03-18T20:58:32.388Z,18.00
2023-03-18T21:00:59.663Z,14.57
2023-03-18T21:03:29.709Z,19.85
2023-03-18T21:05:59.022Z,19.70
2023-03-18T21:08:27.978Z,20.38
2023-03-18T21:10:58.549Z,15.60
2023-03-18T21:13:32.320Z,19.70
2023-03-18T21:16:00.923Z,16.90
2023-03-18T21:18:28.834Z,20.08
2023-03-18T21:20:56.964Z,25.08
2023-03-18T21:23:27.814Z,28.23
2023-03-18T21:25:55.750Z,22.08
2023-03-18T21:28:25.690Z,30.50
2023-03-18T21:30:56.228Z,35.83
2023-03-18T21:33:33.803Z,26.52
2023-03-18T21:36:02.082Z,27.77
2023-03-18T21:38:31.579Z,38.55
2023-03-18T21:41:01.038Z,40.22
2023-03-18T21:43:40.737Z,47.75
2023-03-18T21:46:13.643Z,36.70
2023-03-18T21:48:40.953Z,46.08
2023-03-18T21:51:19.988Z,39.85
2023-03-18T21:53:55.604Z,47.25
2023-03-18T21:56:23.965Z,51.53
2023-03-18T21:58:51.459Z,42.40
2023-03-18T22:01:27.578Z,25.98
2023-03-18T22:03:54.828Z,22.85
2023-03-18T22:06:22.465Z,27.65
2023-03-18T22:08:49.946Z,29.83
2023-03-18T22:11:20.184Z,23.33
2023-03-18T22:13:48.414Z,19.40
2023-03-18T22:16:18.085Z,19.63
2023-03-18T22:18:46.590Z,25.23
2023-03-18T22:21:21.321Z,21.17
2023-03-18T22:23:48.969Z,20.33
2023-03-18T22:26:18.522Z,22.33
2023-03-18T22:28:46.668Z,22.63
2023-03-18T22:31:22.989Z,20.15
2023-03-18T22:33:51.269Z,33.45
2023-03-18T22:36:21.863Z,21.83
2023-03-18T22:38:49.613Z,25.27
2023-03-18T22:41:29.508Z,21.63
2023-03-18T22:44:00.412Z,23.08
2023-03-18T22:46:28.764Z,27.52
2023-03-18T22:48:56.337Z,34.25
2023-03-18T22:51:35.419Z,21.63
2023-03-18T22:54:02.723Z,17.30
2023-03-18T22:56:32.616Z,21.25
2023-03-18T22:58:59.935Z,26.85
2023-03-18T23:01:30.013Z,28.25
2023-03-18T23:03:57.289Z,41.15
2023-03-18T23:06:25.036Z,20.65
2023-03-18T23:08:52.282Z,19.25
2023-03-18T23:11:19.585Z,22.20
2023-03-18T23:13:50.988Z,16.05
2023-03-18T23:16:21.166Z,25.10
2023-03-18T23:18:48.823Z,19.52
2023-03-18T23:21:22.097Z,21.38
2023-03-18T23:23:49.861Z,21.73
2023-03-18T23:26:17.573Z,20.90
2023-03-18T23:28:45.558Z,25.50
2023-03-18T23:31:14.840Z,19.80
2023-03-18T23:33:42.737Z,18.27
2023-03-18T23:36:10.514Z,28.83
2023-03-18T23:38:38.253Z,18.13
2023-03-18T23:41:06.332Z,27.17
2023-03-18T23:43:33.776Z,23.63
2023-03-18T23:46:02.084Z,24.23
2023-03-18T23:48:29.501Z,22.80
2023-03-18T23:50:57.137Z,20.63
2023-03-18T23:53:24.451Z,19.25
2023-03-18T23:55:51.727Z,23.65
2023-03-18T23:58:19.059Z,18.85
